BIENTÔT MET'MAP
version 2.0 !

Prévue avant fin octobre,
la nouvelle version sera
plus belle, plus complète
et hébergée sur un serveur
3 fois plus puissant...
et toujours gratuite !


Pas compatible ?
Essayez la version Mobile !

SE CONNECTER : | S'inscrire | Disclaimer | Découvrir Orbifly |
Code OACI :
Lgende : VFR VFR Marginal IFR IFR Intensif IFR Trs Intensif
Visi :
Plafond :
>= 8 km
>= 3000ft
5 8 km
1000 3000 ft
1500m 5 km
500 1000 ft
800 1500m
200 500 ft
< 800m
< 200 ft

METAR - LIBD Palese Macchie Bari - 02 Jun 2020 08:20 UTC - Data Source NOAA   


- Altitude de l'aérodrome : 177 ft
- Code IATA : BRI
- Pas de NOTAMs connus.


LIBD - Palese Macchie Bari

Dernier METAR connu : 2015/08/11 07:50 LIBD 110750Z 03005KT 350V080 9999 FEW040 28/20 Q1011
TAF TAF LIBD
Valide du 02 à 06h jusqu'au 03 à 06h UTC


020500Z 0206/0306 28010KT CAVOK
BECMG 0207/0209 34015KT
BECMG 0219/0221 28008KT

Source NOAA


MET'MAP, la Météo Aéronautique d'un coup d'oeil ! - Copyright ORBIFLY Décembre 2007

Développement & Programmation : Alexandra Zaïnal
Co-Développement : Marc-Olivier Méhu
Soutien technique & logistique : Manuel Goepfert
Conception & Financement : Baudouin d'Aumeries